Time;durP1;ratioP1;P1;durP2;ratioP2;P2;SDS_P1;SDS_P2;PMS_P1;PMS_P2;Temp;Humidity;BMP_temperature;BMP_pressure;BME280_temperature;BME280_humidity;BME280_pressure;Samples;Min_cycle;Max_cycle;Signal;HPM_P1;HPM_P2
2022/05/19 00:01:27;;;;;;;3.03;1.30;;;25.50;43.30;;;;;;5118728;22;20031;-59
2022/05/19 00:03:30;;;;;;;5.95;1.50;;;25.40;43.50;;;;;;5125355;22;20032;-58
2022/05/19 00:05:31;;;;;;;;;;;25.20;43.60;;;;;;5119410;22;20024;-59
2022/05/19 00:07:33;;;;;;;3.28;1.50;;;25.10;44.30;;;;;;5118981;22;20014;-58
2022/05/19 00:09:36;;;;;;;3.22;1.30;;;25.00;43.90;;;;;;5125134;22;20040;-54
2022/05/19 00:11:40;;;;;;;4.57;1.58;;;24.80;43.90;;;;;;5120398;22;20642;-58
2022/05/19 00:13:41;;;;;;;;;;;24.70;44.10;;;;;;5116198;23;20479;-57
2022/05/19 00:15:43;;;;;;;2.80;1.40;;;24.60;44.60;;;;;;5118520;22;20304;-55
2022/05/19 00:17:46;;;;;;;4.97;1.27;;;24.60;44.50;;;;;;5096322;23;20024;-57
2022/05/19 00:19:48;;;;;;;3.10;1.30;;;24.40;44.50;;;;;;5118106;22;20032;-56
2022/05/19 00:21:51;;;;;;;2.47;1.43;;;24.30;44.50;;;;;;5116829;23;20372;-58
2022/05/19 00:23:53;;;;;;;1.95;1.02;;;24.30;45.20;;;;;;5122900;22;20367;-56
2022/05/19 00:25:56;;;;;;;2.30;1.52;;;24.20;44.70;;;;;;5118788;22;20032;-57
2022/05/19 00:27:58;;;;;;;3.35;1.60;;;24.00;45.00;;;;;;5116339;22;20100;-54
2022/05/19 00:30:00;;;;;;;2.50;1.27;;;24.00;45.10;;;;;;5120380;22;20111;-59
2022/05/19 00:32:03;;;;;;;2.00;1.17;;;23.90;45.40;;;;;;5122648;22;20028;-55
2022/05/19 00:34:05;;;;;;;2.28;1.23;;;23.80;45.40;;;;;;5119034;22;20154;-52
2022/05/19 00:36:14;;;;;;;3.05;1.38;;;23.70;45.60;;;;;;5117639;22;20024;-57
2022/05/19 00:38:16;;;;;;;2.60;1.15;;;23.60;45.30;;;;;;5121409;22;20794;-51
2022/05/19 00:40:21;;;;;;;1.67;1.05;;;23.70;45.10;;;;;;5123513;22;20383;-59
2022/05/19 00:44:43;;;;;;;2.03;1.08;;;24.70;43.60;;;;;;5124002;23;20629;-59
2022/05/19 00:46:57;;;;;;;2.85;1.10;;;25.40;42.80;;;;;;5119064;22;20048;-59
2022/05/19 00:49:05;;;;;;;2.13;0.98;;;25.80;42.10;;;;;;5118186;22;20028;-58
2022/05/19 00:51:10;;;;;;;3.03;1.13;;;26.20;41.70;;;;;;5119138;22;20093;-60
2022/05/19 00:53:28;;;;;;;3.40;1.20;;;26.60;41.20;;;;;;5118536;22;20115;-50
2022/05/19 00:55:39;;;;;;;2.40;1.05;;;26.90;40.80;;;;;;5117890;22;20451;-59
2022/05/19 00:57:57;;;;;;;2.03;1.00;;;27.30;41.10;;;;;;5116163;22;20024;-58
2022/05/19 01:00:06;;;;;;;2.92;1.20;;;27.60;40.10;;;;;;5118261;22;20482;-57
2022/05/19 01:02:12;;;;;;;5.25;1.45;;;27.80;39.80;;;;;;5119315;22;20069;-59
2022/05/19 01:04:25;;;;;;;1.70;0.82;;;28.00;39.60;;;;;;5119634;22;20119;-57
2022/05/19 01:06:30;;;;;;;1.25;0.90;;;28.30;39.40;;;;;;5118650;22;20143;-55
2022/05/19 01:08:40;;;;;;;1.67;0.80;;;28.50;39.20;;;;;;5123644;22;20040;-58
2022/05/19 01:10:44;;;;;;;1.75;0.90;;;28.70;39.00;;;;;;5125189;22;20619;-51
2022/05/19 01:12:49;;;;;;;2.22;1.00;;;28.90;38.90;;;;;;5118482;23;20351;-58
2022/05/19 01:14:51;;;;;;;2.60;1.27;;;29.10;38.60;;;;;;5119480;22;20032;-59
2022/05/19 01:16:53;;;;;;;1.80;1.10;;;29.20;38.40;;;;;;5118381;22;20068;-55
2022/05/19 01:18:57;;;;;;;1.45;1.02;;;29.40;38.20;;;;;;5123980;22;20027;-58
2022/05/19 01:21:00;;;;;;;1.98;1.02;;;29.50;38.10;;;;;;5118358;22;20523;-55
2022/05/19 01:23:05;;;;;;;1.15;0.80;;;29.60;37.90;;;;;;5118978;22;20236;-59
2022/05/19 01:25:24;;;;;;;1.48;0.90;;;29.80;37.90;;;;;;5125113;22;20024;-58
2022/05/19 01:27:27;;;;;;;2.05;1.25;;;29.90;37.80;;;;;;5124255;22;20032;-59
2022/05/19 01:29:29;;;;;;;1.08;0.70;;;30.00;37.70;;;;;;5129036;22;20032;-56
2022/05/19 01:35:14;;;;;;;1.67;0.77;;;30.20;37.50;;;;;;5166479;23;20023;-62
2022/05/19 01:37:17;;;;;;;1.45;0.70;;;30.40;37.40;;;;;;5118273;22;20328;-57
2022/05/19 01:39:22;;;;;;;2.42;1.00;;;30.60;37.20;;;;;;5124503;22;20452;-56
2022/05/19 01:41:31;;;;;;;1.67;0.77;;;30.70;37.10;;;;;;5121164;23;20333;-57
2022/05/19 01:43:42;;;;;;;1.40;0.60;;;30.60;37.30;;;;;;5120254;22;20571;-56
2022/05/19 01:46:01;;;;;;;1.83;0.90;;;30.20;37.60;;;;;;5120605;22;20032;-59
2022/05/19 01:48:28;;;;;;;1.33;0.77;;;29.60;38.00;;;;;;5124627;22;20359;-56
2022/05/19 01:51:09;;;;;;;3.25;0.85;;;29.10;38.80;;;;;;5118374;22;20074;-52
2022/05/19 01:53:28;;;;;;;1.40;0.80;;;28.60;39.10;;;;;;5119043;23;20071;-52
2022/05/19 01:55:57;;;;;;;2.25;0.95;;;28.20;39.40;;;;;;5118662;22;20028;-58
2022/05/19 01:58:26;;;;;;;1.38;0.70;;;28.00;39.70;;;;;;5124356;22;20032;-54
2022/05/19 02:00:30;;;;;;;3.13;0.80;;;27.70;39.90;;;;;;5116286;22;20464;-55
2022/05/19 02:03:08;;;;;;;2.47;0.90;;;27.50;40.30;;;;;;5119898;22;20059;-57
2022/05/19 02:05:46;;;;;;;2.13;0.88;;;27.30;41.20;;;;;;5121852;22;20094;-46
2022/05/19 02:07:52;;;;;;;2.83;0.93;;;27.00;40.80;;;;;;5116006;23;20146;-49
2022/05/19 02:10:14;;;;;;;1.65;0.75;;;26.90;40.90;;;;;;5112545;22;20032;-51
2022/05/19 02:12:17;;;;;;;5.95;1.10;;;26.70;40.60;;;;;;5119342;22;20380;-49
2022/05/19 02:14:28;;;;;;;2.88;0.90;;;26.60;40.80;;;;;;5116496;22;20031;-47
2022/05/19 02:16:31;;;;;;;1.73;1.10;;;26.40;41.20;;;;;;5115782;22;20301;-49
2022/05/19 02:18:33;;;;;;;3.63;0.93;;;26.30;41.30;;;;;;5117214;22;20475;-48
2022/05/19 02:20:37;;;;;;;3.97;1.13;;;26.20;41.90;;;;;;5125210;22;20519;-47
2022/05/19 02:22:43;;;;;;;3.38;1.00;;;26.10;42.10;;;;;;5119024;22;20443;-47
2022/05/19 02:25:13;;;;;;;7.88;1.25;;;26.00;42.10;;;;;;5118188;22;20604;-48
2022/05/19 02:27:48;;;;;;;5.40;1.48;;;25.80;42.70;;;;;;5124684;23;20453;-47
2022/05/19 02:29:50;;;;;;;9.93;1.40;;;25.70;43.20;;;;;;5115674;23;20871;-46
2022/05/19 02:31:53;;;;;;;5.88;1.27;;;25.60;43.30;;;;;;5119928;22;20306;-49
2022/05/19 02:33:55;;;;;;;4.85;1.27;;;25.50;43.50;;;;;;5124095;22;20036;-46
2022/05/19 02:35:57;;;;;;;3.75;1.23;;;25.40;43.80;;;;;;5123288;22;20046;-47
2022/05/19 02:38:00;;;;;;;4.82;1.02;;;25.30;43.70;;;;;;5118762;22;20043;-46
2022/05/19 02:40:03;;;;;;;2.55;1.13;;;25.20;43.80;;;;;;5117051;22;20024;-45
2022/05/19 02:42:06;;;;;;;4.47;1.20;;;25.10;43.80;;;;;;5121817;22;20431;-51
2022/05/19 02:44:08;;;;;;;9.00;1.60;;;25.10;44.00;;;;;;5120210;22;20501;-43
2022/05/19 02:46:10;;;;;;;9.43;1.70;;;25.00;44.10;;;;;;5123995;23;20046;-44
2022/05/19 02:48:14;;;;;;;11.02;1.50;;;24.80;44.10;;;;;;5123279;23;20052;-44
2022/05/19 02:50:18;;;;;;;13.85;1.90;;;24.70;44.40;;;;;;5120946;22;20480;-45
2022/05/19 02:52:20;;;;;;;3.63;1.00;;;24.60;44.60;;;;;;5117571;22;20028;-46
2022/05/19 02:54:22;;;;;;;5.85;1.58;;;24.50;44.70;;;;;;5116693;22;20079;-44
2022/05/19 02:56:24;;;;;;;4.65;1.20;;;24.40;44.80;;;;;;5122678;22;20306;-46
2022/05/19 03:01:23;;;;;;;7.13;1.52;;;24.20;44.90;;;;;;5122882;23;20024;-46
2022/05/19 03:06:22;;;;;;;4.13;1.30;;;24.00;45.00;;;;;;5124140;23;20028;-44
2022/05/19 03:08:25;;;;;;;4.85;1.00;;;23.90;45.10;;;;;;5120612;22;20024;-46
2022/05/19 03:10:27;;;;;;;2.55;0.60;;;23.80;45.20;;;;;;5118807;22;20024;-43
2022/05/19 03:12:29;;;;;;;2.55;0.88;;;23.80;45.30;;;;;;5121777;22;20123;-46
2022/05/19 03:14:32;;;;;;;1.67;0.80;;;23.70;45.30;;;;;;5121276;23;20431;-43
2022/05/19 03:16:34;;;;;;;2.23;1.10;;;23.70;45.40;;;;;;5119384;22;20432;-49
2022/05/19 03:18:36;;;;;;;6.60;0.90;;;23.60;45.50;;;;;;5119723;22;20173;-44
2022/05/19 03:20:38;;;;;;;3.63;0.95;;;23.60;45.60;;;;;;5124435;22;20025;-45
2022/05/19 03:22:40;;;;;;;2.47;0.90;;;23.60;45.70;;;;;;5119168;22;20799;-49
2022/05/19 03:24:42;;;;;;;5.25;1.10;;;23.50;45.60;;;;;;5118708;22;20527;-43
2022/05/19 03:26:45;;;;;;;2.22;1.00;;;23.50;45.70;;;;;;5124489;22;20032;-42
2022/05/19 03:28:47;;;;;;;2.55;0.93;;;23.40;45.80;;;;;;5120873;22;20122;-44
2022/05/19 03:30:49;;;;;;;1.92;0.90;;;23.40;45.80;;;;;;5118205;22;20115;-48
2022/05/19 03:32:51;;;;;;;2.40;1.10;;;23.40;45.90;;;;;;5122820;22;20071;-43
2022/05/19 03:37:50;;;;;;;2.67;0.95;;;23.30;45.80;;;;;;5121267;23;20095;-42
2022/05/19 03:39:52;;;;;;;3.80;1.13;;;23.30;45.80;;;;;;5123237;22;20054;-44
2022/05/19 03:41:54;;;;;;;2.53;1.02;;;23.30;45.90;;;;;;5118888;22;20409;-44
2022/05/19 03:43:57;;;;;;;3.50;0.70;;;23.20;45.80;;;;;;5142642;22;20464;-47
2022/05/19 03:46:01;;;;;;;3.75;0.98;;;23.20;45.90;;;;;;5124261;22;20024;-46
2022/05/19 03:48:04;;;;;;;1.98;0.93;;;23.20;45.90;;;;;;5121651;22;20032;-45
2022/05/19 03:50:07;;;;;;;1.02;0.73;;;23.20;45.90;;;;;;5119620;22;20031;-48
2022/05/19 03:52:09;;;;;;;1.23;0.82;;;23.20;45.90;;;;;;5120547;22;20032;-43
2022/05/19 03:54:14;;;;;;;0.80;0.50;;;23.20;45.90;;;;;;5124805;22;20386;-43
2022/05/19 03:56:17;;;;;;;1.58;0.73;;;23.20;45.90;;;;;;5117441;22;20422;-48
2022/05/19 03:58:19;;;;;;;1.73;0.55;;;23.20;45.90;;;;;;5118868;22;20028;-46
2022/05/19 04:00:22;;;;;;;2.35;1.02;;;23.20;45.90;;;;;;5123565;22;20024;-48
2022/05/19 04:02:24;;;;;;;2.20;0.68;;;23.20;46.00;;;;;;5121968;22;20130;-47
2022/05/19 04:08:12;;;;;;;1.70;0.88;;;23.20;46.20;;;;;;5122654;23;20114;-47
2022/05/19 04:10:15;;;;;;;2.42;0.90;;;23.20;46.50;;;;;;5124168;23;20452;-43
2022/05/19 04:12:21;;;;;;;1.60;0.82;;;23.20;46.60;;;;;;5119886;22;20291;-46
2022/05/19 04:14:27;;;;;;;2.40;1.02;;;23.20;46.80;;;;;;5119517;22;20031;-43
2022/05/19 04:16:29;;;;;;;4.05;0.82;;;23.30;47.00;;;;;;5118647;22;20424;-48
2022/05/19 04:18:31;;;;;;;2.45;1.00;;;23.30;47.00;;;;;;5122357;22;20061;-51
2022/05/19 04:20:34;;;;;;;2.27;0.83;;;23.30;47.10;;;;;;5119614;22;20643;-46
2022/05/19 04:22:37;;;;;;;4.10;0.70;;;23.30;47.20;;;;;;5117953;22;20077;-45
2022/05/19 04:24:39;;;;;;;1.58;0.90;;;23.40;47.30;;;;;;5119293;22;20060;-44
2022/05/19 04:26:42;;;;;;;2.30;0.50;;;23.40;47.40;;;;;;5123413;22;20762;-50
2022/05/19 04:28:44;;;;;;;2.00;0.80;;;23.40;47.50;;;;;;5118351;22;20269;-41
2022/05/19 04:30:46;;;;;;;2.03;0.53;;;23.50;47.50;;;;;;5117250;23;20035;-45
2022/05/19 04:32:48;;;;;;;5.05;0.80;;;23.50;47.70;;;;;;5124428;22;20269;-48
2022/05/19 04:34:51;;;;;;;3.70;0.70;;;23.50;47.60;;;;;;5119580;22;20028;-58
2022/05/19 04:36:53;;;;;;;2.70;0.85;;;23.50;47.70;;;;;;5116071;23;20389;-52
2022/05/19 04:38:55;;;;;;;1.33;0.55;;;23.50;47.70;;;;;;5122785;22;20045;-54
2022/05/19 04:41:05;;;;;;;0.70;0.50;;;23.60;48.00;;;;;;5121223;22;20392;-50
2022/05/19 04:43:08;;;;;;;0.30;0.30;;;23.60;48.00;;;;;;5117688;22;20375;-52
2022/05/19 04:45:12;;;;;;;0.40;0.40;;;23.60;48.10;;;;;;5112914;22;20417;-50
2022/05/19 04:47:15;;;;;;;0.55;0.30;;;23.70;48.20;;;;;;5120473;22;20289;-54
2022/05/19 04:49:17;;;;;;;;;;;23.60;48.20;;;;;;5121878;22;20035;-56
2022/05/19 04:51:19;;;;;;;1.83;0.47;;;23.70;48.20;;;;;;5114554;22;19920;-54
2022/05/19 04:53:22;;;;;;;1.75;0.47;;;23.80;48.30;;;;;;5115760;22;20471;-53
2022/05/19 04:55:24;;;;;;;0.40;0.40;;;23.80;48.20;;;;;;5121591;23;20158;-50
2022/05/19 04:57:27;;;;;;;1.73;0.50;;;23.80;48.10;;;;;;5114694;23;20494;-51
2022/05/19 04:59:29;;;;;;;1.20;0.50;;;23.80;48.00;;;;;;5117209;22;20359;-49
2022/05/19 05:01:31;;;;;;;0.20;0.20;;;23.80;48.10;;;;;;5121272;22;20126;-58
2022/05/19 05:03:33;;;;;;;2.53;0.30;;;23.80;48.10;;;;;;5115081;23;20423;-51
2022/05/19 05:05:36;;;;;;;0.63;0.40;;;23.80;48.30;;;;;;5117212;22;21029;-49
2022/05/19 05:07:38;;;;;;;0.88;0.40;;;23.80;48.20;;;;;;5118350;22;20027;-48
2022/05/19 05:09:40;;;;;;;0.70;0.30;;;23.80;48.40;;;;;;5123786;22;20348;-50
2022/05/19 05:11:43;;;;;;;0.88;0.25;;;23.70;48.50;;;;;;5118481;22;20024;-50
2022/05/19 05:13:45;;;;;;;0.33;0.30;;;23.70;48.40;;;;;;5117559;22;20444;-49
2022/05/19 05:15:47;;;;;;;2.35;0.35;;;23.70;48.50;;;;;;5124587;22;20024;-53
2022/05/19 05:17:50;;;;;;;0.27;0.23;;;23.70;48.40;;;;;;5121515;22;20991;-56
2022/05/19 05:19:52;;;;;;;0.37;0.23;;;23.70;49.00;;;;;;5117843;22;20031;-48
2022/05/19 05:21:59;;;;;;;0.73;0.30;;;23.70;48.50;;;;;;5121183;22;20032;-55
2022/05/19 05:24:01;;;;;;;0.63;0.20;;;23.70;48.40;;;;;;5122716;22;20483;-54
2022/05/19 05:26:05;;;;;;;1.30;0.30;;;23.70;48.30;;;;;;5118082;22;20543;-51
2022/05/19 05:28:08;;;;;;;3.35;0.50;;;23.70;49.00;;;;;;5118488;22;20275;-50
2022/05/19 05:30:12;;;;;;;0.55;0.30;;;23.70;48.60;;;;;;5118759;22;20563;-53
2022/05/19 05:32:14;;;;;;;6.13;0.50;;;23.70;48.70;;;;;;5124139;22;20119;-59
2022/05/19 05:34:17;;;;;;;0.77;0.20;;;23.70;48.70;;;;;;5117042;22;20035;-51
2022/05/19 05:36:20;;;;;;;2.03;0.60;;;23.60;48.70;;;;;;5118721;22;20261;-50
2022/05/19 05:38:22;;;;;;;3.33;0.70;;;23.60;48.10;;;;;;5124821;22;20036;-58
2022/05/19 05:40:26;;;;;;;6.78;1.40;;;23.50;47.80;;;;;;5119603;22;20609;-57
2022/05/19 05:42:28;;;;;;;1.75;0.20;;;23.40;48.20;;;;;;5119481;22;20712;-58
2022/05/19 05:44:31;;;;;;;1.07;0.40;;;23.40;48.40;;;;;;5120443;22;20039;-58
2022/05/19 05:46:33;;;;;;;1.42;0.30;;;23.30;48.60;;;;;;5123693;23;20178;-51
2022/05/19 05:48:36;;;;;;;0.95;0.30;;;23.30;48.60;;;;;;5120405;23;20035;-57
2022/05/19 05:50:39;;;;;;;0.52;0.28;;;23.30;48.90;;;;;;5125650;22;20031;-50
2022/05/19 05:58:55;;;;;;;3.75;1.00;;;23.20;49.10;;;;;;5139805;23;20051;-51
2022/05/19 06:00:57;;;;;;;9.63;1.67;;;23.10;49.90;;;;;;5127166;22;20043;-56
2022/05/19 06:02:59;;;;;;;9.83;1.30;;;23.10;49.50;;;;;;5121047;22;20032;-55
2022/05/19 06:05:02;;;;;;;11.48;1.27;;;23.00;49.30;;;;;;5120022;22;20027;-55
2022/05/19 06:07:05;;;;;;;6.82;0.93;;;23.00;49.50;;;;;;5123181;22;20043;-53
2022/05/19 06:09:07;;;;;;;2.17;0.95;;;23.00;49.60;;;;;;5120414;22;20436;-52
2022/05/19 06:11:10;;;;;;;2.28;0.35;;;23.00;49.60;;;;;;5117310;22;20038;-56
2022/05/19 06:13:13;;;;;;;3.42;0.47;;;22.90;49.60;;;;;;5114703;23;20031;-54
2022/05/19 06:15:16;;;;;;;3.55;0.50;;;22.90;49.60;;;;;;5123422;22;20560;-55
2022/05/19 06:17:19;;;;;;;0.90;0.40;;;22.90;49.90;;;;;;5119829;22;20297;-53
2022/05/19 06:19:22;;;;;;;0.85;0.35;;;22.90;49.80;;;;;;5117205;22;20032;-52
2022/05/19 06:21:25;;;;;;;0.65;0.60;;;22.90;49.90;;;;;;5119017;22;20529;-55
2022/05/19 06:23:27;;;;;;;2.03;0.30;;;22.80;49.90;;;;;;5121221;22;20043;-58
2022/05/19 06:25:30;;;;;;;0.32;0.22;;;22.80;50.10;;;;;;5108473;22;20312;-60
2022/05/19 06:27:33;;;;;;;1.35;0.55;;;22.70;50.10;;;;;;5108004;22;20352;-54
2022/05/19 06:29:36;;;;;;;1.50;0.40;;;22.70;50.10;;;;;;5113746;22;20545;-55
2022/05/19 06:31:38;;;;;;;0.43;0.40;;;22.60;50.10;;;;;;5110532;23;20493;-51
2022/05/19 06:33:40;;;;;;;3.00;0.50;;;22.60;49.90;;;;;;5108497;22;20386;-47
2022/05/19 06:35:43;;;;;;;1.73;0.50;;;22.60;50.00;;;;;;5109827;22;20265;-52
2022/05/19 06:37:46;;;;;;;1.10;0.30;;;22.60;50.30;;;;;;5137007;22;21074;-54
2022/05/19 06:39:48;;;;;;;1.88;0.52;;;22.60;50.40;;;;;;5108609;22;20024;-53
2022/05/19 06:42:03;;;;;;;3.72;0.40;;;22.60;50.30;;;;;;5109340;22;20500;-54
2022/05/19 06:44:05;;;;;;;2.38;0.35;;;22.60;50.40;;;;;;5108260;22;20032;-56
2022/05/19 06:46:07;;;;;;;3.73;1.03;;;22.60;50.50;;;;;;5113685;22;20024;-58
2022/05/19 06:48:09;;;;;;;3.53;0.70;;;22.50;50.60;;;;;;5112513;22;20314;-49
2022/05/19 06:50:13;;;;;;;3.60;1.17;;;22.50;50.70;;;;;;5108861;22;20035;-56
2022/05/19 06:52:21;;;;;;;6.05;1.35;;;22.50;50.50;;;;;;5110675;22;20106;-49
2022/05/19 06:54:24;;;;;;;13.85;1.50;;;22.50;50.50;;;;;;5135900;22;20027;-48
2022/05/19 06:56:26;;;;;;;9.80;1.20;;;22.40;50.50;;;;;;5116323;22;20024;-47
2022/05/19 06:58:28;;;;;;;5.90;1.20;;;22.40;50.50;;;;;;5118670;22;20269;-53
2022/05/19 07:00:31;;;;;;;4.88;1.00;;;22.40;50.70;;;;;;5117375;22;20031;-51
2022/05/19 07:02:33;;;;;;;11.73;1.40;;;22.40;50.50;;;;;;5122381;22;20032;-52
2022/05/19 07:04:36;;;;;;;3.60;1.03;;;22.30;50.30;;;;;;5116081;22;20673;-52
2022/05/19 07:06:38;;;;;;;4.43;0.98;;;22.30;50.40;;;;;;5116445;22;20464;-48
2022/05/19 07:08:41;;;;;;;4.77;1.20;;;22.20;50.40;;;;;;5122196;22;20028;-49
2022/05/19 07:10:43;;;;;;;5.93;1.15;;;22.20;50.50;;;;;;5115194;22;20348;-50
2022/05/19 07:12:46;;;;;;;4.15;1.20;;;22.20;50.70;;;;;;5117193;22;20396;-50
2022/05/19 07:14:48;;;;;;;4.78;1.17;;;22.20;50.80;;;;;;5118532;22;20039;-48
2022/05/19 07:16:50;;;;;;;3.40;0.73;;;22.10;50.80;;;;;;5123754;22;20413;-46
2022/05/19 07:20:43;;;;;;;3.38;0.95;;;22.10;50.80;;;;;;5118497;22;20464;-48
2022/05/19 07:21:16;;;;;;;2.88;0.70;;;22.10;50.90;;;;;;5121467;23;20426;-50
2022/05/19 07:23:21;;;;;;;4.57;0.90;;;22.10;51.00;;;;;;5117391;22;20226;-47
2022/05/19 07:25:24;;;;;;;3.30;1.00;;;22.10;50.90;;;;;;5116871;22;20028;-51
2022/05/19 07:27:26;;;;;;;7.82;0.60;;;22.10;51.00;;;;;;5123501;22;20024;-47
2022/05/19 07:29:28;;;;;;;2.65;0.77;;;22.00;51.00;;;;;;5121757;22;20229;-50
2022/05/19 07:31:32;;;;;;;1.98;0.88;;;22.00;51.00;;;;;;5117492;22;20102;-49
2022/05/19 07:33:36;;;;;;;;;;;22.00;51.10;;;;;;5117285;22;20445;-48
2022/05/19 07:35:40;;;;;;;5.55;1.00;;;22.00;51.10;;;;;;5123180;22;20100;-46
2022/05/19 07:37:42;;;;;;;4.63;1.00;;;22.00;51.10;;;;;;5118107;22;20055;-46
2022/05/19 07:39:44;;;;;;;2.35;0.80;;;22.00;51.20;;;;;;5115978;22;20398;-50
2022/05/19 07:41:47;;;;;;;2.10;1.00;;;21.90;51.20;;;;;;5120949;22;20028;-47
2022/05/19 07:43:49;;;;;;;2.35;0.73;;;21.90;51.20;;;;;;5123148;22;20089;-48
2022/05/19 07:45:51;;;;;;;3.17;0.98;;;21.90;51.20;;;;;;5118471;22;20189;-48
2022/05/19 07:47:53;;;;;;;2.85;1.25;;;21.90;51.20;;;;;;5116225;22;20260;-48
2022/05/19 07:49:56;;;;;;;1.85;0.65;;;21.90;51.30;;;;;;5123469;22;20036;-47
2022/05/19 07:51:58;;;;;;;4.70;1.52;;;21.90;51.30;;;;;;5118920;22;20028;-50
2022/05/19 07:54:01;;;;;;;2.30;1.10;;;21.90;51.40;;;;;;5116971;22;20151;-45
2022/05/19 07:56:04;;;;;;;4.82;0.90;;;21.90;51.50;;;;;;5123062;22;20365;-45
2022/05/19 07:58:06;;;;;;;5.45;1.52;;;21.80;51.50;;;;;;5120987;22;20384;-49
2022/05/19 08:00:10;;;;;;;4.30;1.52;;;21.80;51.60;;;;;;5115349;22;20107;-48
2022/05/19 08:02:13;;;;;;;8.13;1.33;;;21.80;51.70;;;;;;5115865;22;20518;-48
2022/05/19 08:04:17;;;;;;;6.88;1.30;;;21.80;51.80;;;;;;5123466;22;20052;-46
2022/05/19 08:06:19;;;;;;;2.90;1.17;;;21.80;51.90;;;;;;5117135;22;20563;-49
2022/05/19 08:08:21;;;;;;;6.18;1.50;;;21.80;52.00;;;;;;5116565;22;20027;-47
2022/05/19 08:10:26;;;;;;;4.15;0.93;;;21.80;52.10;;;;;;5122167;22;20111;-49
2022/05/19 08:17:10;;;;;;;4.00;0.80;;;21.70;52.10;;;;;;5116259;23;20028;-46
2022/05/19 08:19:12;;;;;;;2.13;0.70;;;21.70;52.10;;;;;;5120273;22;20035;-58
2022/05/19 08:21:15;;;;;;;1.90;0.95;;;21.70;52.10;;;;;;5119682;22;20203;-55
2022/05/19 08:23:21;;;;;;;2.53;0.93;;;21.70;52.30;;;;;;5118918;22;20032;-55
2022/05/19 08:25:26;;;;;;;4.38;0.80;;;21.70;52.90;;;;;;5121289;22;20098;-52
2022/05/19 08:27:29;;;;;;;2.03;0.68;;;21.70;52.30;;;;;;5122577;22;20035;-54
2022/05/19 08:29:31;;;;;;;0.70;0.57;;;21.70;52.20;;;;;;5122360;22;20320;-51
2022/05/19 08:31:33;;;;;;;4.38;0.70;;;21.70;52.30;;;;;;5120066;22;20436;-55
2022/05/19 08:33:37;;;;;;;1.80;0.63;;;21.60;52.90;;;;;;5120522;22;20121;-59
2022/05/19 08:35:40;;;;;;;1.15;0.65;;;21.60;52.30;;;;;;5124241;22;21068;-55
2022/05/19 08:37:42;;;;;;;3.92;0.80;;;21.60;52.20;;;;;;5118802;22;20500;-52
2022/05/19 08:39:44;;;;;;;2.22;0.85;;;21.60;52.20;;;;;;5118612;22;20335;-55
2022/05/19 08:41:56;;;;;;;1.98;0.60;;;21.60;52.10;;;;;;5121498;23;20059;-54
2022/05/19 08:44:29;;;;;;;4.78;1.02;;;21.60;52.10;;;;;;5125739;22;20470;-53
2022/05/19 08:46:39;;;;;;;1.67;0.73;;;21.60;52.10;;;;;;5119133;22;20405;-55
2022/05/19 08:48:41;;;;;;;0.52;0.40;;;21.60;52.70;;;;;;5120379;22;20333;-56
2022/05/19 08:51:06;;;;;;;1.45;0.65;;;21.50;51.90;;;;;;5117669;22;20032;-53
2022/05/19 08:53:11;;;;;;;3.58;1.10;;;21.50;52.00;;;;;;5121122;22;20023;-46
2022/05/19 08:55:16;;;;;;;2.70;1.02;;;21.50;51.70;;;;;;5114723;23;20036;-48
2022/05/19 08:57:28;;;;;;;4.80;1.13;;;21.50;51.80;;;;;;5116451;22;20051;-49
2022/05/19 08:59:49;;;;;;;6.40;1.85;;;21.50;51.90;;;;;;5115973;22;20032;-55
2022/05/19 09:02:24;;;;;;;4.75;1.17;;;21.50;51.90;;;;;;5117465;22;20031;-50
2022/05/19 09:04:38;;;;;;;4.70;1.50;;;21.50;51.90;;;;;;5112975;22;20043;-48
2022/05/19 09:09:51;;;;;;;2.22;1.10;;;21.40;51.80;;;;;;5117785;23;20524;-54
2022/05/19 09:12:00;;;;;;;2.97;1.30;;;21.40;51.90;;;;;;5119993;22;20550;-55
2022/05/19 09:14:16;;;;;;;3.05;0.98;;;21.30;52.20;;;;;;5113633;22;20526;-51
2022/05/19 09:16:33;;;;;;;3.22;0.98;;;21.30;51.70;;;;;;5116659;23;20131;-49
2022/05/19 09:18:42;;;;;;;3.30;1.85;;;21.30;51.90;;;;;;5117921;22;20131;-44
2022/05/19 09:20:53;;;;;;;3.63;1.30;;;21.30;51.40;;;;;;5119358;22;20443;-45
2022/05/19 09:23:04;;;;;;;3.40;1.30;;;21.20;51.40;;;;;;5118390;22;20036;-46
2022/05/19 09:25:10;;;;;;;5.13;1.50;;;21.20;51.60;;;;;;5089325;23;20112;-49
2022/05/19 09:27:12;;;;;;;2.22;1.27;;;21.20;51.70;;;;;;5113775;22;20052;-54
2022/05/19 09:29:32;;;;;;;4.37;1.33;;;21.20;51.90;;;;;;5111796;22;20032;-48
2022/05/19 09:31:37;;;;;;;3.05;1.27;;;21.20;52.20;;;;;;5111134;22;20051;-46
2022/05/19 09:33:47;;;;;;;2.97;1.40;;;21.20;52.30;;;;;;5113582;22;20039;-50
2022/05/19 09:35:56;;;;;;;3.75;1.70;;;21.10;52.50;;;;;;5109105;23;20159;-49
2022/05/19 09:38:13;;;;;;;3.55;1.40;;;21.10;52.60;;;;;;5115317;22;20027;-52
2022/05/19 09:40:33;;;;;;;3.95;1.60;;;21.10;52.50;;;;;;5110221;22;20032;-52
2022/05/19 09:42:55;;;;;;;3.95;1.40;;;21.10;52.50;;;;;;5114475;22;20036;-50
2022/05/19 09:44:59;;;;;;;2.33;1.25;;;21.10;52.70;;;;;;5120988;23;20051;-50
2022/05/19 09:47:17;;;;;;;1.85;1.10;;;21.10;52.70;;;;;;5115765;22;20368;-52
2022/05/19 09:49:33;;;;;;;2.88;1.30;;;21.10;52.70;;;;;;5114762;22;20559;-50
2022/05/19 09:51:45;;;;;;;2.40;1.30;;;21.10;52.90;;;;;;5116025;22;20036;-50
2022/05/19 09:53:55;;;;;;;2.60;1.50;;;21.10;52.90;;;;;;5119344;22;20424;-49
2022/05/19 09:55:58;;;;;;;3.05;1.52;;;21.00;52.90;;;;;;5117783;22;20434;-52
2022/05/19 09:58:02;;;;;;;3.97;1.70;;;21.10;53.00;;;;;;5115038;22;20042;-50
2022/05/19 10:00:18;;;;;;;6.18;1.40;;;21.00;53.00;;;;;;5116081;22;20527;-53
2022/05/19 10:02:38;;;;;;;7.55;2.17;;;21.00;53.20;;;;;;5115636;22;20207;-47
2022/05/19 10:04:50;;;;;;;3.35;1.30;;;21.00;53.10;;;;;;5113746;22;20102;-47
2022/05/19 10:06:57;;;;;;;1.92;1.00;;;21.00;53.40;;;;;;5138132;22;20466;-47
2022/05/19 10:09:06;;;;;;;4.82;1.50;;;21.00;53.10;;;;;;5115334;22;20035;-47
2022/05/19 10:11:24;;;;;;;3.08;1.02;;;21.00;53.10;;;;;;5115756;22;20143;-53
2022/05/19 10:13:32;;;;;;;2.47;0.90;;;21.00;53.10;;;;;;5115356;22;20079;-49
2022/05/19 10:15:55;;;;;;;3.33;1.35;;;20.90;53.10;;;;;;5114757;22;20050;-52
2022/05/19 10:18:21;;;;;;;3.95;1.38;;;20.90;53.10;;;;;;5117307;22;20459;-54
2022/05/19 10:20:30;;;;;;;5.50;1.45;;;20.90;53.10;;;;;;5073907;22;20535;-52
2022/05/19 10:22:54;;;;;;;5.60;1.38;;;20.90;53.10;;;;;;5118995;22;20032;-54
2022/05/19 10:25:05;;;;;;;4.53;1.45;;;20.90;53.10;;;;;;5116199;22;20080;-51
2022/05/19 10:32:38;;;;;;;3.85;1.33;;;20.80;53.20;;;;;;5121082;23;20024;-46
2022/05/19 10:34:55;;;;;;;6.97;1.92;;;20.80;53.30;;;;;;5118796;22;20094;-50
2022/05/19 10:37:18;;;;;;;3.72;1.60;;;20.80;53.40;;;;;;5121871;23;20180;-45
2022/05/19 10:46:01;;;;;;;3.65;2.33;;;20.80;53.40;;;;;;5171304;23;20319;-49
2022/05/19 10:51:39;;;;;;;5.95;2.40;;;20.70;53.30;;;;;;5144831;23;20047;-53
2022/05/19 10:53:51;;;;;;;5.80;1.63;;;20.70;53.40;;;;;;5118062;22;20028;-49
2022/05/19 10:56:08;;;;;;;5.30;2.25;;;20.70;53.40;;;;;;5115752;22;20709;-49
2022/05/19 10:58:38;;;;;;;3.97;1.50;;;20.60;53.60;;;;;;5121035;22;20567;-50
2022/05/19 11:00:56;;;;;;;5.53;2.03;;;20.60;53.70;;;;;;5116694;23;20027;-47
2022/05/19 11:03:57;;;;;;;8.77;2.45;;;20.60;53.60;;;;;;5140650;22;20028;-51
2022/05/19 11:06:13;;;;;;;7.47;1.85;;;20.60;53.50;;;;;;5071085;22;20074;-49
2022/05/19 11:08:44;;;;;;;5.57;1.65;;;20.60;53.50;;;;;;5118783;23;20103;-50
2022/05/19 11:11:15;;;;;;;2.85;1.77;;;20.60;53.60;;;;;;5114629;23;20998;-48
2022/05/19 11:13:44;;;;;;;3.85;1.92;;;20.60;53.60;;;;;;5107910;23;20103;-50
2022/05/19 11:16:04;;;;;;;3.35;1.50;;;20.50;53.50;;;;;;5117684;22;20110;-54
2022/05/19 11:18:12;;;;;;;3.75;1.65;;;20.50;53.50;;;;;;5124414;22;20111;-49
2022/05/19 11:20:25;;;;;;;4.40;1.80;;;20.50;53.70;;;;;;5124347;22;20031;-59
2022/05/19 11:22:32;;;;;;;2.72;1.67;;;20.50;53.60;;;;;;5120535;23;20031;-58
2022/05/19 11:27:21;;;;;;;4.25;1.60;;;20.50;53.90;;;;;;5118402;23;20390;-50
2022/05/19 11:29:45;;;;;;;6.53;1.85;;;20.50;53.80;;;;;;5116238;22;20031;-48
2022/05/19 11:31:47;;;;;;;;;;;20.50;53.50;;;;;;5121928;22;20024;-51
2022/05/19 11:33:53;;;;;;;3.17;1.77;;;20.50;53.50;;;;;;5116157;22;20335;-51
2022/05/19 11:36:07;;;;;;;2.72;1.65;;;20.50;53.70;;;;;;5115324;22;20574;-50
2022/05/19 11:38:50;;;;;;;5.22;1.60;;;20.40;53.70;;;;;;5115028;22;20035;-53
2022/05/19 11:40:59;;;;;;;2.15;1.50;;;20.40;53.70;;;;;;5100563;22;20499;-53
2022/05/19 11:43:01;;;;;;;3.95;1.52;;;20.40;53.60;;;;;;5113790;22;20063;-53
2022/05/19 11:45:07;;;;;;;2.45;1.30;;;20.40;53.60;;;;;;5121045;22;20299;-54
2022/05/19 11:55:19;;;;;;;2.53;1.58;;;20.40;53.90;;;;;;5114568;23;20031;-45
2022/05/19 11:57:37;;;;;;;2.50;1.20;;;20.30;53.90;;;;;;5116121;22;20097;-49
2022/05/19 11:59:40;;;;;;;1.95;1.30;;;20.30;53.80;;;;;;5115129;22;20032;-51
2022/05/19 12:01:50;;;;;;;2.13;1.30;;;20.30;54.00;;;;;;5119470;22;20410;-50